createdAt,value
2018-06-17T00:00:49.810Z,12.30
2018-06-17T00:01:49.991Z,12.40
2018-06-17T00:02:50.171Z,12.00
2018-06-17T00:03:50.355Z,12.20
2018-06-17T00:04:50.566Z,11.20
2018-06-17T00:05:50.727Z,12.60
2018-06-17T00:06:50.889Z,12.20
2018-06-17T00:07:51.062Z,19.10
2018-06-17T00:08:51.231Z,12.50
2018-06-17T00:09:51.428Z,13.60
2018-06-17T00:10:51.587Z,12.20
2018-06-17T00:11:51.763Z,12.20
2018-06-17T00:12:51.954Z,11.80
2018-06-17T00:13:52.141Z,11.90
2018-06-17T00:14:52.324Z,12.30
2018-06-17T00:15:52.541Z,12.10
2018-06-17T00:16:52.690Z,12.50
2018-06-17T00:17:52.872Z,12.20
2018-06-17T00:18:53.050Z,11.90
2018-06-17T00:19:53.249Z,12.50
2018-06-17T00:20:53.475Z,12.20
2018-06-17T00:21:53.595Z,12.50
2018-06-17T00:22:53.771Z,12.10
2018-06-17T00:23:53.957Z,12.10
2018-06-17T00:24:54.137Z,11.40
2018-06-17T00:25:54.320Z,11.60
2018-06-17T00:26:55.423Z,12.20
2018-06-17T00:27:54.727Z,11.20
2018-06-17T00:28:54.938Z,10.90
2018-06-17T00:29:55.092Z,11.00
2018-06-17T00:30:55.281Z,10.90
2018-06-17T00:31:55.462Z,10.80
2018-06-17T00:32:55.646Z,11.30
2018-06-17T00:33:55.830Z,10.80
2018-06-17T00:34:56.034Z,10.90
2018-06-17T00:35:56.191Z,11.30
2018-06-17T00:36:56.369Z,11.60
2018-06-17T00:37:56.556Z,11.70
2018-06-17T00:38:56.744Z,11.90
2018-06-17T00:39:56.949Z,11.90
2018-06-17T00:40:57.093Z,11.50
2018-06-17T00:41:57.303Z,11.80
2018-06-17T00:42:57.458Z,11.80
2018-06-17T00:43:57.666Z,12.10
2018-06-17T00:44:57.817Z,12.00
2018-06-17T00:45:58.009Z,12.20
2018-06-17T00:46:58.192Z,12.00
2018-06-17T00:47:58.392Z,11.90
2018-06-17T00:48:58.552Z,11.90
2018-06-17T00:49:58.736Z,12.40
2018-06-17T00:50:58.938Z,12.10
2018-06-17T00:51:59.138Z,11.90
2018-06-17T00:52:59.295Z,12.30
2018-06-17T00:53:59.479Z,11.80
2018-06-17T00:54:59.676Z,11.50
2018-06-17T00:55:59.861Z,11.40
2018-06-17T00:57:00.027Z,12.30
2018-06-17T00:58:00.222Z,12.40
2018-06-17T00:59:00.423Z,12.20
2018-06-17T01:00:00.577Z,11.30
2018-06-17T01:01:00.772Z,11.90
2018-06-17T01:02:00.916Z,11.90
2018-06-17T01:03:01.097Z,12.30
2018-06-17T01:04:01.280Z,11.80
2018-06-17T01:05:01.460Z,14.10
2018-06-17T01:06:01.640Z,12.30
2018-06-17T01:07:01.814Z,13.40
2018-06-17T01:08:01.991Z,23.10
2018-06-17T01:09:02.177Z,12.70
2018-06-17T01:10:02.408Z,12.00
2018-06-17T01:11:02.543Z,12.80
2018-06-17T01:12:02.717Z,12.80
2018-06-17T01:13:02.903Z,11.80
2018-06-17T01:14:03.110Z,15.80
2018-06-17T01:15:03.310Z,13.40
2018-06-17T01:16:03.452Z,12.80
2018-06-17T01:17:03.634Z,12.60
2018-06-17T01:18:03.848Z,13.00
2018-06-17T01:19:04.018Z,12.60
2018-06-17T01:20:04.189Z,12.70
2018-06-17T01:21:04.368Z,12.80
2018-06-17T01:22:04.566Z,12.60
2018-06-17T01:23:04.740Z,13.70
2018-06-17T01:24:04.913Z,13.20
2018-06-17T01:25:05.095Z,12.80
2018-06-17T01:26:05.281Z,13.10
2018-06-17T01:27:05.509Z,13.30
2018-06-17T01:28:05.683Z,13.50
2018-06-17T01:29:05.826Z,13.30
2018-06-17T01:30:06.000Z,13.60
2018-06-17T01:31:06.183Z,13.50
2018-06-17T01:32:06.354Z,13.90
2018-06-17T01:33:06.552Z,13.50
2018-06-17T01:34:06.717Z,13.50
2018-06-17T01:35:06.888Z,13.70
2018-06-17T01:36:07.067Z,13.20
2018-06-17T01:37:07.291Z,13.10
2018-06-17T01:38:07.450Z,12.60
2018-06-17T01:39:07.635Z,14.00
2018-06-17T01:40:07.789Z,13.50
2018-06-17T01:41:08.003Z,12.60
2018-06-17T01:42:08.157Z,13.40
2018-06-17T01:43:08.336Z,14.10
2018-06-17T01:44:08.507Z,13.70
2018-06-17T01:45:08.694Z,16.70
2018-06-17T01:46:08.870Z,14.50
2018-06-17T01:47:09.088Z,14.30
2018-06-17T01:48:09.257Z,14.70
2018-06-17T01:49:09.440Z,14.80
2018-06-17T01:50:09.624Z,14.10
2018-06-17T01:51:09.782Z,15.30
2018-06-17T01:52:10.000Z,15.10
2018-06-17T01:53:10.132Z,15.80
2018-06-17T01:54:10.321Z,14.90
2018-06-17T01:55:10.512Z,15.60
2018-06-17T01:56:10.688Z,16.00
2018-06-17T01:57:10.844Z,15.80
2018-06-17T01:58:11.030Z,15.90
2018-06-17T01:59:11.210Z,16.00
2018-06-17T02:00:11.401Z,15.20
2018-06-17T02:01:11.586Z,15.30
2018-06-17T02:02:11.774Z,15.70
2018-06-17T02:03:12.015Z,15.30
2018-06-17T02:04:12.150Z,16.40
2018-06-17T02:05:12.357Z,15.30
2018-06-17T02:06:12.551Z,15.40
2018-06-17T02:07:12.697Z,15.60
2018-06-17T02:08:12.889Z,15.70
2018-06-17T02:09:13.045Z,16.50
2018-06-17T02:10:13.237Z,15.50
2018-06-17T02:11:13.420Z,15.40
2018-06-17T02:12:13.643Z,14.80
2018-06-17T02:13:13.804Z,14.80
2018-06-17T02:14:13.961Z,15.30
2018-06-17T02:15:14.144Z,14.40
2018-06-17T02:16:14.391Z,14.10
2018-06-17T02:17:14.510Z,14.20
2018-06-17T02:18:14.702Z,15.10
2018-06-17T02:19:14.869Z,14.50
2018-06-17T02:20:15.063Z,14.50
2018-06-17T02:21:15.250Z,14.20
2018-06-17T02:22:15.430Z,17.40
2018-06-17T02:23:15.608Z,14.50
2018-06-17T02:24:15.793Z,14.30
2018-06-17T02:25:15.993Z,14.20
2018-06-17T02:26:16.169Z,15.10
2018-06-17T02:27:16.375Z,15.20
2018-06-17T02:28:16.561Z,15.40
2018-06-17T02:29:16.770Z,15.70
2018-06-17T02:30:16.929Z,15.50
2018-06-17T02:31:17.118Z,15.30
2018-06-17T02:32:17.336Z,15.00
2018-06-17T02:33:17.526Z,16.20
2018-06-17T02:34:17.700Z,14.90
2018-06-17T02:35:17.858Z,15.80
2018-06-17T02:36:18.037Z,15.90
2018-06-17T02:37:18.205Z,16.10
2018-06-17T02:38:18.427Z,15.90
2018-06-17T02:39:18.607Z,14.60
2018-06-17T02:40:18.771Z,15.70
2018-06-17T02:41:18.971Z,15.60
2018-06-17T02:42:19.160Z,15.70
2018-06-17T02:43:19.362Z,15.90
2018-06-17T02:44:19.507Z,15.90
2018-06-17T02:45:19.678Z,15.90
2018-06-17T02:46:19.892Z,15.00
2018-06-17T02:47:20.080Z,14.90
2018-06-17T02:48:20.210Z,15.10
2018-06-17T02:49:20.391Z,14.90
2018-06-17T02:50:20.596Z,14.70
2018-06-17T02:51:20.760Z,14.70
2018-06-17T02:52:20.944Z,14.20
2018-06-17T02:53:21.161Z,14.00
2018-06-17T02:54:21.300Z,14.70
2018-06-17T02:55:21.496Z,14.50
2018-06-17T02:56:21.654Z,14.50
2018-06-17T02:57:21.888Z,15.20
2018-06-17T02:58:22.025Z,16.20
2018-06-17T02:59:22.200Z,16.00
2018-06-17T03:00:22.392Z,15.20
2018-06-17T03:01:22.603Z,14.90
2018-06-17T03:02:22.778Z,14.70
2018-06-17T03:03:22.963Z,14.90
2018-06-17T03:04:23.169Z,14.50
2018-06-17T03:05:23.347Z,29.40
2018-06-17T03:06:23.513Z,13.90
2018-06-17T03:07:23.677Z,13.40
2018-06-17T03:08:23.858Z,13.30
2018-06-17T03:11:07.749Z,15.00
2018-06-17T03:12:07.537Z,14.20
2018-06-17T03:13:07.627Z,14.80
2018-06-17T03:14:07.896Z,14.80
2018-06-17T03:15:08.124Z,15.20
2018-06-17T03:16:08.248Z,14.80
2018-06-17T03:17:08.425Z,14.20
2018-06-17T03:18:08.586Z,15.30
2018-06-17T03:19:08.780Z,14.80
2018-06-17T03:20:08.977Z,14.60
2018-06-17T03:21:09.134Z,13.90
2018-06-17T03:22:09.311Z,14.10
2018-06-17T03:23:09.503Z,13.90
2018-06-17T03:24:09.682Z,14.20
2018-06-17T03:25:09.889Z,13.20
2018-06-17T03:26:10.122Z,11.90
2018-06-17T03:27:10.205Z,12.20
2018-06-17T03:28:10.406Z,10.50
2018-06-17T03:29:10.591Z,10.90
2018-06-17T03:30:10.778Z,11.50
2018-06-17T03:31:10.961Z,12.10
2018-06-17T03:32:11.128Z,12.80
2018-06-17T03:33:11.308Z,12.70
2018-06-17T03:34:11.493Z,12.80
2018-06-17T03:35:11.680Z,13.40
2018-06-17T03:36:11.851Z,14.30
2018-06-17T03:37:12.052Z,14.20
2018-06-17T03:38:12.232Z,14.40
2018-06-17T03:39:12.414Z,14.70
2018-06-17T03:40:12.597Z,14.50
2018-06-17T03:41:12.784Z,14.40
2018-06-17T03:42:12.957Z,14.10
2018-06-17T03:43:13.143Z,14.00
2018-06-17T03:44:13.375Z,14.40
2018-06-17T03:45:13.497Z,13.40
2018-06-17T03:46:13.705Z,13.80
2018-06-17T03:47:13.885Z,13.70
2018-06-17T03:48:14.096Z,13.20
2018-06-17T03:49:14.275Z,13.80
2018-06-17T03:50:14.433Z,12.70
2018-06-17T03:51:14.611Z,11.70
2018-06-17T03:52:14.767Z,10.50
2018-06-17T03:53:14.964Z,10.80
2018-06-17T03:54:15.186Z,10.30
2018-06-17T03:55:15.343Z,10.10
2018-06-17T03:56:15.519Z,9.60
2018-06-17T03:57:15.689Z,9.00
2018-06-17T03:58:15.886Z,9.60
2018-06-17T03:59:16.082Z,8.90
2018-06-17T04:00:16.206Z,8.90
2018-06-17T04:01:16.396Z,8.50
2018-06-17T04:02:16.583Z,9.10
2018-06-17T04:03:16.780Z,9.00
2018-06-17T04:04:16.941Z,8.20
2018-06-17T04:05:17.120Z,8.10
2018-06-17T04:06:17.305Z,8.00
2018-06-17T04:07:17.491Z,8.60
2018-06-17T04:08:17.666Z,8.70
2018-06-17T04:09:17.852Z,8.00
2018-06-17T04:10:18.133Z,9.30
2018-06-17T04:11:18.206Z,9.70
2018-06-17T04:12:18.418Z,10.50
2018-06-17T04:13:18.554Z,11.40
2018-06-17T04:14:18.760Z,11.20
2018-06-17T04:15:18.950Z,11.50
2018-06-17T04:16:19.116Z,12.30
2018-06-17T04:17:19.281Z,10.90
2018-06-17T04:18:19.482Z,10.40
2018-06-17T04:19:19.642Z,9.60
2018-06-17T04:20:19.820Z,8.90
2018-06-17T04:21:20.002Z,10.00
2018-06-17T04:22:20.220Z,9.60
2018-06-17T04:23:20.358Z,8.80
2018-06-17T04:24:20.576Z,8.70
2018-06-17T04:25:20.768Z,8.50
2018-06-17T04:26:20.911Z,8.30
2018-06-17T04:27:21.099Z,8.00
2018-06-17T04:28:21.288Z,8.30
2018-06-17T04:29:21.449Z,7.70
2018-06-17T04:30:21.625Z,8.20
2018-06-17T04:31:21.822Z,8.00
2018-06-17T04:32:21.971Z,8.10
2018-06-17T04:33:22.212Z,7.90
2018-06-17T04:34:22.358Z,8.00
2018-06-17T04:35:22.524Z,8.20
2018-06-17T04:36:22.695Z,7.90
2018-06-17T04:37:22.886Z,7.90
2018-06-17T04:38:23.069Z,7.70
2018-06-17T04:39:23.247Z,8.00
2018-06-17T04:40:23.417Z,8.00
2018-06-17T04:41:23.626Z,7.70
2018-06-17T04:42:23.766Z,7.90
2018-06-17T04:43:23.950Z,8.10
2018-06-17T04:44:24.137Z,7.50
2018-06-17T04:45:24.325Z,7.30
2018-06-17T04:46:24.496Z,7.30
2018-06-17T04:47:24.677Z,7.60
2018-06-17T04:48:24.862Z,7.50
2018-06-17T04:49:25.045Z,7.90
2018-06-17T04:50:25.224Z,7.70
2018-06-17T04:51:25.419Z,8.00
2018-06-17T04:52:25.606Z,7.80
2018-06-17T04:53:25.774Z,8.00
2018-06-17T04:54:25.977Z,7.70
2018-06-17T04:55:26.150Z,7.70
2018-06-17T04:56:26.337Z,7.70
2018-06-17T04:57:26.537Z,7.80
2018-06-17T04:58:26.669Z,8.00
2018-06-17T04:59:26.842Z,8.10
2018-06-17T05:00:27.033Z,9.00
2018-06-17T05:01:27.206Z,7.90
2018-06-17T05:02:27.400Z,7.60
2018-06-17T05:03:27.575Z,7.90
2018-06-17T05:04:27.763Z,7.80
2018-06-17T05:05:27.937Z,8.30
2018-06-17T05:06:28.105Z,8.50
2018-06-17T05:07:28.320Z,8.00
2018-06-17T05:08:28.479Z,8.20
2018-06-17T05:09:28.677Z,8.20
2018-06-17T05:10:28.851Z,8.00
2018-06-17T05:11:29.026Z,8.60
2018-06-17T05:12:29.229Z,8.40
2018-06-17T05:13:29.388Z,8.30
2018-06-17T05:14:29.576Z,8.20
2018-06-17T05:15:29.753Z,8.20
2018-06-17T05:16:29.930Z,9.00
2018-06-17T05:17:30.143Z,8.10
2018-06-17T05:18:30.286Z,7.90
2018-06-17T05:19:30.462Z,8.50
2018-06-17T05:20:30.669Z,7.80
2018-06-17T05:21:30.838Z,8.00
2018-06-17T05:22:31.021Z,8.10
2018-06-17T05:23:31.210Z,7.50
2018-06-17T05:24:31.402Z,8.10
2018-06-17T05:25:31.579Z,7.60
2018-06-17T05:26:31.775Z,8.00
2018-06-17T05:27:31.949Z,8.10
2018-06-17T05:28:32.131Z,8.10
2018-06-17T05:29:32.341Z,8.30
2018-06-17T05:30:32.500Z,7.60
2018-06-17T05:31:32.705Z,8.50
2018-06-17T05:32:32.874Z,8.30
2018-06-17T05:33:33.055Z,8.40
2018-06-17T05:34:33.231Z,8.40
2018-06-17T05:35:33.414Z,7.90
2018-06-17T05:36:33.587Z,8.80
2018-06-17T05:37:33.769Z,9.10
2018-06-17T05:38:33.951Z,8.10
2018-06-17T05:39:34.122Z,8.10
2018-06-17T05:40:34.301Z,8.60
2018-06-17T05:41:34.482Z,9.40
2018-06-17T05:42:34.670Z,9.20
2018-06-17T05:43:34.854Z,8.20
2018-06-17T05:44:35.044Z,8.50
2018-06-17T05:45:35.213Z,7.90
2018-06-17T05:46:35.418Z,8.70
2018-06-17T05:47:35.646Z,9.50
2018-06-17T05:48:35.792Z,9.20
2018-06-17T05:49:35.934Z,9.20
2018-06-17T05:50:36.161Z,9.00
2018-06-17T05:51:36.319Z,8.30
2018-06-17T05:52:36.507Z,9.30
2018-06-17T05:53:36.695Z,8.70
2018-06-17T05:54:36.878Z,9.00
2018-06-17T05:55:37.138Z,8.90
2018-06-17T05:56:37.269Z,9.60
2018-06-17T05:57:37.448Z,10.00
2018-06-17T05:58:37.609Z,9.70
2018-06-17T05:59:37.847Z,9.40
2018-06-17T06:00:37.977Z,9.90
2018-06-17T06:01:38.160Z,9.80
2018-06-17T06:02:38.352Z,9.70
2018-06-17T06:03:38.525Z,10.10
2018-06-17T06:04:38.744Z,10.10
2018-06-17T06:05:38.897Z,9.40
2018-06-17T06:06:39.080Z,10.80
2018-06-17T06:07:39.285Z,10.20
2018-06-17T06:08:39.442Z,10.70
2018-06-17T06:09:39.625Z,9.80
2018-06-17T06:10:39.809Z,9.90
2018-06-17T06:11:39.989Z,10.60
2018-06-17T06:12:40.177Z,10.00
2018-06-17T06:13:40.396Z,10.90
2018-06-17T06:14:40.567Z,11.60
2018-06-17T06:15:40.756Z,10.20
2018-06-17T06:16:40.914Z,10.40
2018-06-17T06:17:41.102Z,10.90
2018-06-17T06:18:41.288Z,10.20
2018-06-17T06:19:41.472Z,10.10
2018-06-17T06:20:41.664Z,10.80
2018-06-17T06:21:41.872Z,11.00
2018-06-17T06:22:42.042Z,11.20
2018-06-17T06:23:42.232Z,10.60
2018-06-17T06:24:42.473Z,10.90
2018-06-17T06:25:42.576Z,10.40
2018-06-17T06:26:42.776Z,10.30
2018-06-17T06:27:42.984Z,10.40
2018-06-17T06:28:43.130Z,10.50
2018-06-17T06:29:43.321Z,9.70
2018-06-17T06:30:43.545Z,10.10
2018-06-17T06:31:43.704Z,10.10
2018-06-17T06:32:43.866Z,9.90
2018-06-17T06:33:44.048Z,9.10
2018-06-17T06:34:44.247Z,8.80
2018-06-17T06:35:44.410Z,8.80
2018-06-17T06:36:44.593Z,8.50
2018-06-17T06:37:44.778Z,8.70
2018-06-17T06:38:44.962Z,8.00
2018-06-17T06:39:45.140Z,8.40
2018-06-17T06:40:45.364Z,8.20
2018-06-17T06:41:45.497Z,7.40
2018-06-17T06:42:45.693Z,6.90
2018-06-17T06:43:45.884Z,7.30
2018-06-17T06:44:46.087Z,6.50
2018-06-17T06:45:46.251Z,5.30
2018-06-17T06:46:46.440Z,5.90
2018-06-17T06:47:46.625Z,5.80
2018-06-17T06:48:46.819Z,5.80
2018-06-17T06:49:47.027Z,5.50
2018-06-17T06:50:47.178Z,5.60
2018-06-17T06:51:47.362Z,5.20
2018-06-17T06:52:47.553Z,5.40
2018-06-17T06:53:47.742Z,5.60
2018-06-17T06:54:47.929Z,5.20
2018-06-17T06:55:48.105Z,5.60
2018-06-17T06:56:48.313Z,5.70
2018-06-17T06:57:48.467Z,5.40
2018-06-17T06:58:48.668Z,5.50
2018-06-17T06:59:48.841Z,5.40
2018-06-17T07:00:49.014Z,6.40
2018-06-17T07:01:49.236Z,5.50
2018-06-17T07:02:49.407Z,6.30
2018-06-17T07:03:49.563Z,5.90
2018-06-17T07:04:49.750Z,6.40
2018-06-17T07:05:49.942Z,6.10
2018-06-17T07:06:50.136Z,5.80
2018-06-17T07:07:50.334Z,5.50
2018-06-17T07:08:50.492Z,6.50
2018-06-17T07:09:50.683Z,6.20
2018-06-17T07:10:50.873Z,6.00
2018-06-17T07:11:51.079Z,6.30
2018-06-17T07:12:51.228Z,5.80
2018-06-17T07:13:51.437Z,6.10
2018-06-17T07:14:51.601Z,5.70
2018-06-17T07:15:51.787Z,5.70
2018-06-17T07:16:52.037Z,5.70
2018-06-17T07:17:52.165Z,5.80
2018-06-17T07:18:52.348Z,5.40
2018-06-17T07:19:52.545Z,5.70
2018-06-17T07:20:52.719Z,5.20
2018-06-17T07:21:52.912Z,5.30
2018-06-17T07:22:53.101Z,5.10
2018-06-17T07:23:53.315Z,4.70
2018-06-17T07:24:53.479Z,4.60
2018-06-17T07:25:53.666Z,4.20
2018-06-17T07:26:53.850Z,4.30
2018-06-17T07:27:54.033Z,4.30
2018-06-17T07:28:54.213Z,3.80
2018-06-17T07:29:54.405Z,3.90
2018-06-17T07:30:54.599Z,3.90
2018-06-17T07:31:54.811Z,3.90
2018-06-17T07:32:55.005Z,4.00
2018-06-17T07:33:55.161Z,4.50
2018-06-17T07:34:55.361Z,4.70
2018-06-17T07:35:55.538Z,4.10
2018-06-17T07:36:55.734Z,4.00
2018-06-17T07:37:55.942Z,3.90
2018-06-17T07:38:56.091Z,4.20
2018-06-17T07:39:56.285Z,4.50
2018-06-17T07:40:56.586Z,4.40
2018-06-17T07:41:56.688Z,4.40
2018-06-17T07:42:56.832Z,4.20
2018-06-17T07:43:57.079Z,4.00
2018-06-17T07:44:57.209Z,3.90
2018-06-17T07:45:57.422Z,3.50
2018-06-17T07:46:57.602Z,3.50
2018-06-17T07:47:57.773Z,3.00
2018-06-17T07:48:57.980Z,2.80
2018-06-17T07:49:58.188Z,2.80
2018-06-17T07:50:58.340Z,3.10
2018-06-17T07:51:58.509Z,3.00
2018-06-17T07:52:58.689Z,3.00
2018-06-17T07:53:58.886Z,2.90
2018-06-17T07:54:59.078Z,3.00
2018-06-17T07:55:59.328Z,2.70
2018-06-17T07:56:59.446Z,2.90
2018-06-17T07:57:59.625Z,2.80
2018-06-17T07:58:59.820Z,2.50
2018-06-17T08:00:00.018Z,2.40
2018-06-17T08:01:00.202Z,2.10
2018-06-17T08:02:00.395Z,2.50
2018-06-17T08:03:00.582Z,2.30
2018-06-17T08:04:00.777Z,2.30
2018-06-17T08:05:00.965Z,1.80
2018-06-17T08:06:01.155Z,1.70
2018-06-17T08:07:01.340Z,2.00
2018-06-17T08:08:01.524Z,2.10
2018-06-17T08:09:01.724Z,2.00
2018-06-17T08:10:01.904Z,1.90
2018-06-17T08:11:02.145Z,1.90
2018-06-17T08:12:02.330Z,1.80
2018-06-17T08:13:02.499Z,1.90
2018-06-17T08:14:02.724Z,2.10
2018-06-17T08:15:02.880Z,2.10
2018-06-17T08:16:03.077Z,2.10
2018-06-17T08:17:03.294Z,2.30
2018-06-17T08:18:03.491Z,2.00
2018-06-17T08:19:03.664Z,1.90
2018-06-17T08:20:03.848Z,2.10
2018-06-17T08:21:04.062Z,2.20
2018-06-17T08:22:04.227Z,1.90
2018-06-17T08:23:04.457Z,2.10
2018-06-17T08:24:04.601Z,2.10
2018-06-17T08:25:04.813Z,2.00
2018-06-17T08:26:04.985Z,1.90
2018-06-17T08:27:05.178Z,2.00
2018-06-17T08:28:05.371Z,1.70
2018-06-17T08:29:05.558Z,2.00
2018-06-17T08:30:05.767Z,2.10
2018-06-17T08:31:05.962Z,2.10
2018-06-17T08:32:06.141Z,1.80
2018-06-17T08:33:06.342Z,2.20
2018-06-17T08:34:06.508Z,1.90
2018-06-17T08:35:06.697Z,2.10
2018-06-17T08:36:06.885Z,2.30
2018-06-17T08:37:07.081Z,2.10
2018-06-17T08:38:07.273Z,1.90
2018-06-17T08:39:07.465Z,2.00
2018-06-17T08:40:07.672Z,2.20
2018-06-17T08:41:07.844Z,2.00
2018-06-17T08:42:08.055Z,2.10
2018-06-17T08:43:08.221Z,2.00
2018-06-17T08:44:08.409Z,2.30
2018-06-17T08:45:08.607Z,2.00
2018-06-17T08:46:08.786Z,1.90
2018-06-17T08:47:08.973Z,2.20
2018-06-17T08:48:09.181Z,2.30
2018-06-17T08:49:09.378Z,2.00
2018-06-17T08:50:09.567Z,2.00
2018-06-17T08:51:09.786Z,2.10
2018-06-17T08:52:09.941Z,2.10
2018-06-17T08:53:10.132Z,2.40
2018-06-17T08:54:10.343Z,2.10
2018-06-17T08:55:10.508Z,2.00
2018-06-17T08:56:10.697Z,2.10
2018-06-17T08:57:10.897Z,2.20
2018-06-17T08:58:11.082Z,2.20
2018-06-17T08:59:11.278Z,2.00
2018-06-17T09:00:11.548Z,2.30
2018-06-17T09:01:11.660Z,2.20
2018-06-17T09:02:11.844Z,2.20
2018-06-17T09:03:12.035Z,2.30
2018-06-17T09:04:12.230Z,2.10
2018-06-17T09:05:12.420Z,2.50
2018-06-17T09:06:12.605Z,2.50
2018-06-17T09:07:12.811Z,2.30
2018-06-17T09:08:13.013Z,2.50
2018-06-17T09:09:13.185Z,2.30
2018-06-17T09:10:13.347Z,2.50
2018-06-17T09:11:13.551Z,2.20
2018-06-17T09:12:13.737Z,2.40
2018-06-17T09:13:13.932Z,2.40
2018-06-17T09:14:14.126Z,2.70
2018-06-17T09:15:14.299Z,2.60
2018-06-17T09:16:14.487Z,2.70
2018-06-17T09:17:14.691Z,2.70
2018-06-17T09:18:14.862Z,2.60
2018-06-17T09:19:15.080Z,2.10
2018-06-17T09:20:15.266Z,2.40
2018-06-17T09:21:15.458Z,2.40
2018-06-17T09:22:15.604Z,2.30
2018-06-17T09:23:15.780Z,2.10
2018-06-17T09:24:15.984Z,2.30
2018-06-17T09:25:16.193Z,2.40
2018-06-17T09:26:16.358Z,2.30
2018-06-17T09:27:16.549Z,2.00
2018-06-17T09:28:16.730Z,2.00
2018-06-17T09:29:16.924Z,1.90
2018-06-17T09:30:17.114Z,2.30
2018-06-17T09:31:17.338Z,2.20
2018-06-17T09:32:17.545Z,1.80
2018-06-17T09:33:17.718Z,2.00
2018-06-17T09:34:17.893Z,2.10
2018-06-17T09:35:18.062Z,2.10
2018-06-17T09:36:18.246Z,2.30
2018-06-17T09:37:18.434Z,2.10
2018-06-17T09:38:18.652Z,2.10
2018-06-17T09:39:18.818Z,2.30
2018-06-17T09:40:18.998Z,2.30
2018-06-17T09:41:19.198Z,2.40
2018-06-17T09:42:19.407Z,2.30
2018-06-17T09:43:19.583Z,2.20
2018-06-17T09:44:19.836Z,2.40
2018-06-17T09:45:19.901Z,2.10
2018-06-17T09:46:20.135Z,2.40
2018-06-17T09:47:20.287Z,1.90
2018-06-17T09:48:20.466Z,2.20
2018-06-17T09:49:20.655Z,2.30
2018-06-17T09:50:20.835Z,2.20
2018-06-17T09:51:21.013Z,2.20
2018-06-17T09:52:21.221Z,2.40
2018-06-17T09:53:21.413Z,2.20
2018-06-17T09:54:21.598Z,2.10
2018-06-17T09:55:21.771Z,2.30
2018-06-17T09:56:21.962Z,2.20
2018-06-17T09:57:22.163Z,2.30
2018-06-17T09:58:22.322Z,2.00
2018-06-17T09:59:22.502Z,2.20
2018-06-17T10:00:22.685Z,2.30
2018-06-17T10:01:22.873Z,2.00
2018-06-17T10:02:23.059Z,2.00
2018-06-17T10:03:23.270Z,1.90
2018-06-17T10:04:23.437Z,1.90
2018-06-17T10:05:23.631Z,1.90
2018-06-17T10:06:23.822Z,1.70
2018-06-17T10:07:24.022Z,1.90
2018-06-17T10:08:24.222Z,2.10
2018-06-17T10:09:24.361Z,2.00
2018-06-17T10:10:24.599Z,1.80
2018-06-17T10:11:24.726Z,2.10
2018-06-17T10:12:24.902Z,1.80
2018-06-17T10:13:25.091Z,1.80
2018-06-17T10:14:25.277Z,2.10
2018-06-17T10:15:25.499Z,1.70
2018-06-17T10:16:25.646Z,1.60
2018-06-17T10:17:25.849Z,1.70
2018-06-17T10:18:26.019Z,1.60
2018-06-17T10:19:26.202Z,1.60
2018-06-17T10:20:26.385Z,1.30
2018-06-17T10:21:26.574Z,1.30
2018-06-17T10:22:26.765Z,1.40
2018-06-17T10:23:26.967Z,1.10
2018-06-17T10:24:27.128Z,1.30
2018-06-17T10:25:27.358Z,1.40
2018-06-17T10:26:27.509Z,1.50
2018-06-17T10:27:27.724Z,1.40
2018-06-17T10:28:27.865Z,1.50
2018-06-17T10:29:28.136Z,1.40
2018-06-17T10:30:28.243Z,1.40
2018-06-17T10:31:28.429Z,1.30
2018-06-17T10:32:28.639Z,1.30
2018-06-17T10:33:28.803Z,1.30
2018-06-17T10:34:28.970Z,1.40
2018-06-17T10:35:29.155Z,1.20
2018-06-17T10:36:29.328Z,1.30
2018-06-17T10:37:29.521Z,1.30
2018-06-17T10:38:29.714Z,1.30
2018-06-17T10:39:29.912Z,1.20
2018-06-17T10:40:30.105Z,1.20
2018-06-17T10:41:30.312Z,1.20
2018-06-17T10:42:30.498Z,1.30
2018-06-17T10:43:30.671Z,1.20
2018-06-17T10:44:30.834Z,1.40
2018-06-17T10:45:31.051Z,1.30
2018-06-17T10:46:31.205Z,1.40
2018-06-17T10:47:31.391Z,1.40
2018-06-17T10:48:31.602Z,1.40
2018-06-17T10:49:31.779Z,1.40
2018-06-17T10:50:32.030Z,1.40
2018-06-17T10:51:32.184Z,1.20
2018-06-17T10:52:32.358Z,1.40
2018-06-17T10:53:32.521Z,1.50
2018-06-17T10:54:32.700Z,1.30
2018-06-17T10:55:32.945Z,1.40
2018-06-17T10:56:33.096Z,1.50
2018-06-17T10:57:33.292Z,1.50
2018-06-17T10:58:33.509Z,1.30
2018-06-17T10:59:33.674Z,1.50
2018-06-17T11:00:33.848Z,1.50
2018-06-17T11:01:34.068Z,1.40
2018-06-17T11:02:34.264Z,1.40
2018-06-17T11:03:34.398Z,1.60
2018-06-17T11:04:34.583Z,1.30
2018-06-17T11:05:34.800Z,1.30
2018-06-17T11:06:34.949Z,1.50
2018-06-17T11:07:35.138Z,1.30
2018-06-17T11:08:35.347Z,1.40
2018-06-17T11:09:35.499Z,1.20
2018-06-17T11:10:35.705Z,1.20
2018-06-17T11:11:35.879Z,1.30
2018-06-17T11:12:36.071Z,1.20
2018-06-17T11:13:36.256Z,1.10
2018-06-17T11:14:36.437Z,1.30
2018-06-17T11:15:36.614Z,1.30
2018-06-17T11:16:36.834Z,1.20
2018-06-17T11:17:37.030Z,1.20
2018-06-17T11:18:37.181Z,1.40
2018-06-17T11:19:37.381Z,1.10
2018-06-17T11:20:37.567Z,1.10
2018-06-17T11:21:37.761Z,1.10
2018-06-17T11:22:37.932Z,1.10
2018-06-17T11:23:38.129Z,1.40
2018-06-17T11:24:38.319Z,1.10
2018-06-17T11:25:38.504Z,1.20
2018-06-17T11:26:38.680Z,1.30
2018-06-17T11:27:38.852Z,1.20
2018-06-17T11:28:39.052Z,1.20
2018-06-17T11:29:39.253Z,1.10
2018-06-17T11:30:39.411Z,1.10
2018-06-17T11:31:39.585Z,1.10
2018-06-17T11:32:39.764Z,1.20
2018-06-17T11:33:39.950Z,1.10
2018-06-17T11:34:40.142Z,1.30
2018-06-17T11:35:40.326Z,1.10
2018-06-17T11:36:40.532Z,1.00
2018-06-17T11:37:40.682Z,1.20
2018-06-17T11:38:40.854Z,1.30
2018-06-17T11:39:41.067Z,1.10
2018-06-17T11:40:41.260Z,1.20
2018-06-17T11:41:41.437Z,1.00
2018-06-17T11:42:41.604Z,1.00
2018-06-17T11:43:41.811Z,1.00
2018-06-17T11:44:41.998Z,1.00
2018-06-17T11:45:42.157Z,1.10
2018-06-17T11:46:42.341Z,1.10
2018-06-17T11:47:42.531Z,1.10
2018-06-17T11:48:42.729Z,1.20
2018-06-17T11:49:42.951Z,1.10
2018-06-17T11:50:43.122Z,1.20
2018-06-17T11:51:43.295Z,1.10
2018-06-17T11:52:43.456Z,1.00
2018-06-17T11:53:43.648Z,1.00
2018-06-17T11:54:43.871Z,1.20
2018-06-17T11:55:44.019Z,1.10
2018-06-17T11:56:44.230Z,1.00
2018-06-17T11:57:44.409Z,1.10
2018-06-17T11:58:44.605Z,1.20
2018-06-17T11:59:44.887Z,1.20
2018-06-17T12:00:45.016Z,1.30
2018-06-17T12:01:45.178Z,1.20
2018-06-17T12:02:45.354Z,1.30
2018-06-17T12:03:45.501Z,1.20
2018-06-17T12:04:45.699Z,1.10
2018-06-17T12:05:45.912Z,1.10
2018-06-17T12:06:46.061Z,1.10
2018-06-17T12:07:46.246Z,1.10
2018-06-17T12:08:46.423Z,1.10
2018-06-17T12:09:46.630Z,1.10
2018-06-17T12:10:46.801Z,1.10
2018-06-17T12:11:46.989Z,1.10
2018-06-17T12:12:47.248Z,1.10
2018-06-17T12:13:47.362Z,1.00
2018-06-17T12:14:47.646Z,1.00
2018-06-17T12:15:47.765Z,0.90
2018-06-17T12:16:47.939Z,1.00
2018-06-17T12:17:48.124Z,1.00
2018-06-17T12:18:48.283Z,1.00
2018-06-17T12:19:48.473Z,1.00
2018-06-17T12:20:48.660Z,1.00
2018-06-17T12:21:48.897Z,1.00
2018-06-17T12:22:49.084Z,0.90
2018-06-17T12:23:49.271Z,1.00
2018-06-17T12:24:49.466Z,1.00
2018-06-17T12:25:49.647Z,1.10
2018-06-17T12:26:49.823Z,1.10
2018-06-17T12:27:50.056Z,1.20
2018-06-17T12:28:50.217Z,1.00
2018-06-17T12:29:50.378Z,1.20
2018-06-17T12:30:50.597Z,1.00
2018-06-17T12:31:50.743Z,1.30
2018-06-17T12:32:51.014Z,1.00
2018-06-17T12:33:51.135Z,1.10
2018-06-17T12:34:51.311Z,1.10
2018-06-17T12:35:51.488Z,1.00
2018-06-17T12:36:51.665Z,1.10
2018-06-17T12:37:51.854Z,1.10
2018-06-17T12:38:52.078Z,1.10
2018-06-17T12:39:52.218Z,1.00
2018-06-17T12:40:52.424Z,1.00
2018-06-17T12:41:52.597Z,1.10
2018-06-17T12:42:52.778Z,1.20
2018-06-17T12:43:53.024Z,1.20
2018-06-17T12:44:53.215Z,1.10
2018-06-17T12:45:53.340Z,1.10
2018-06-17T12:46:53.530Z,1.10
2018-06-17T12:47:53.793Z,1.10
2018-06-17T12:48:53.937Z,1.10
2018-06-17T12:49:54.090Z,1.10
2018-06-17T12:50:54.276Z,1.00
2018-06-17T12:51:54.484Z,1.10
2018-06-17T12:52:54.663Z,1.00
2018-06-17T12:53:54.834Z,1.00
2018-06-17T12:54:55.044Z,1.20
2018-06-17T12:55:55.223Z,1.00
2018-06-17T12:56:55.387Z,1.10
2018-06-17T12:57:55.570Z,1.20
2018-06-17T12:58:55.757Z,1.30
2018-06-17T12:59:55.991Z,1.20
2018-06-17T13:00:56.143Z,0.90
2018-06-17T13:01:56.318Z,1.10
2018-06-17T13:02:56.514Z,1.10
2018-06-17T13:03:56.706Z,1.20
2018-06-17T13:04:56.908Z,1.20
2018-06-17T13:05:57.072Z,1.10
2018-06-17T13:06:57.285Z,1.00
2018-06-17T13:07:57.462Z,1.10
2018-06-17T13:08:57.647Z,1.20
2018-06-17T13:09:57.835Z,1.10
2018-06-17T13:10:58.040Z,1.10
2018-06-17T13:11:58.210Z,1.20
2018-06-17T13:12:58.428Z,1.20
2018-06-17T13:13:58.595Z,1.20